Archival Weather

Snohomish County (Paine Fld)

Everett, Washington (KPAE)

Report from: Tuesday, November 14, 2023 12:53 AM PST
Current time: Saturday, June 22, 2024 3:10 AM PDT

Current weather – Weather history – Daily summaries
Weather forecast

Temperature3.3°C (37.9°F)
Wind chill1.9°C (35.5°F)
Dew point1.7°C (35.1°F)
Winds 3 kts (1.5 m/s, 3.5 mph) North (10°)
Visibility10 mi. (16.1 km)
Clouds Sky clear
Altimeter30.15 in.Hg (1021 mB)
Relative humidity89 %
Density altitude-1,587 ft. (-484 m)
Sea-level pressure102.1 kPa (1021 mB, 30.16 in.Hg)
Remarks Fully automated report
Automated weather observing station with precipitation discriminator
Pressure falling more quickly
Flight conditions Visual Meteorological Conditions
Raw dataKPAE 140853Z AUTO 01003KT 10SM CLR 03/02 A3015 RMK AO2 SLP212 T00330017 58005
An error has occurred. This application may no longer respond until reloaded. Reload 🗙